Time;durP1;ratioP1;P1;durP2;ratioP2;P2;SDS_P1;SDS_P2;PMS_P1;PMS_P2;Temp;Humidity;BMP_temperature;BMP_pressure;BME280_temperature;BME280_humidity;BME280_pressure;Samples;Min_cycle;Max_cycle;Signal;HPM_P1;HPM_P2
2023/03/03 00:01:25;;;;;;;;;;;;;;;20.57;34.99;101284.65;103672;1309;61267;-83
2023/03/03 00:03:51;;;;;;;;;;;;;;;20.56;35.01;101281.10;103637;1308;60565;-83
2023/03/03 00:06:16;;;;;;;;;;;;;;;20.56;34.88;101279.67;103669;1309;60616;-82
2023/03/03 00:08:42;;;;;;;;;;;;;;;20.56;35.02;101281.81;103850;1309;60513;-83
2023/03/03 00:11:10;;;;;;;;;;;;;;;20.57;34.87;101281.08;103693;1314;60510;-83
2023/03/03 00:13:44;;;;;;;;;;;;;;;20.56;35.00;101282.35;103620;1311;61083;-83
2023/03/03 00:16:11;;;;;;;;;;;;;;;20.56;34.94;101274.67;103882;1309;60484;-83
2023/03/03 00:18:37;;;;;;;;;;;;;;;20.56;35.05;101268.95;103634;1309;73352;-83
2023/03/03 00:21:05;;;;;;;;;;;;;;;20.56;34.83;101265.72;103858;1313;60603;-84
2023/03/03 00:23:35;;;;;;;;;;;;;;;20.56;34.98;101267.14;103863;1308;61389;-84
2023/03/03 00:26:00;;;;;;;;;;;;;;;20.56;35.19;101258.75;103669;1309;60948;-83
2023/03/03 00:28:30;;;;;;;;;;;;;;;20.56;34.94;101256.95;103588;1308;60651;-83
2023/03/03 00:30:56;;;;;;;;;;;;;;;20.57;35.06;101250.14;103842;1308;72805;-84
2023/03/03 00:33:27;;;;;;;;;;;;;;;20.56;35.01;101245.00;103650;1312;60497;-84
2023/03/03 00:35:53;;;;;;;;;;;;;;;20.56;35.08;101243.18;103878;1308;60309;-84
2023/03/03 00:38:28;;;;;;;;;;;;;;;20.56;34.95;101239.23;103852;1308;73439;-83
2023/03/03 00:40:55;;;;;;;;;;;;;;;20.56;34.98;101233.38;103871;1308;60613;-83
2023/03/03 00:43:21;;;;;;;;;;;;;;;20.56;34.99;101228.53;103643;1309;60409;-82
2023/03/03 00:45:51;;;;;;;;;;;;;;;20.56;34.91;101228.88;103850;1309;60609;-83
2023/03/03 00:48:17;;;;;;;;;;;;;;;20.57;34.90;101226.54;103674;1309;73521;-83
2023/03/03 00:50:43;;;;;;;;;;;;;;;20.56;34.99;101221.73;103831;1308;60527;-83
2023/03/03 00:53:13;;;;;;;;;;;;;;;20.56;35.02;101217.43;103720;1308;60527;-82
2023/03/03 00:55:44;;;;;;;;;;;;;;;20.56;35.04;101216.36;103878;1309;60487;-83
2023/03/03 00:58:13;;;;;;;;;;;;;;;20.57;35.06;101212.76;103683;1308;73530;-83
2023/03/03 01:00:39;;;;;;;;;;;;;;;20.57;35.05;101212.59;103874;1308;73926;-84
2023/03/03 01:03:05;;;;;;;;;;;;;;;20.57;35.12;101206.69;103646;1308;60733;-83
2023/03/03 01:05:31;;;;;;;;;;;;;;;20.56;35.12;101207.60;103671;1308;60567;-83
2023/03/03 01:07:57;;;;;;;;;;;;;;;20.56;35.20;101208.30;103623;1308;60539;-83
2023/03/03 01:10:23;;;;;;;;;;;;;;;20.57;35.04;101206.48;103629;1314;60701;-82
2023/03/03 01:12:49;;;;;;;;;;;;;;;20.57;35.09;101205.61;103645;1308;60620;-83
2023/03/03 01:15:14;;;;;;;;;;;;;;;20.57;35.07;101205.22;103891;1309;60566;-83
2023/03/03 01:17:42;;;;;;;;;;;;;;;20.57;35.02;101201.49;103893;1308;59514;-83
2023/03/03 01:20:09;;;;;;;;;;;;;;;20.57;34.93;101201.13;103823;1308;72575;-83
2023/03/03 01:22:37;;;;;;;;;;;;;;;20.57;35.14;101199.34;103685;1309;60481;-84
2023/03/03 01:25:03;;;;;;;;;;;;;;;20.56;35.07;101194.71;103875;1309;60511;-81
2023/03/03 01:27:29;;;;;;;;;;;;;;;20.57;35.02;101193.96;103855;1309;60498;-82
2023/03/03 01:29:58;;;;;;;;;;;;;;;20.57;35.07;101195.77;103642;1308;60597;-83
2023/03/03 01:32:26;;;;;;;;;;;;;;;20.57;35.06;101197.73;103665;1309;74795;-83
2023/03/03 01:34:52;;;;;;;;;;;;;;;20.56;35.15;101194.35;103664;1308;60467;-83
2023/03/03 01:37:18;;;;;;;;;;;;;;;20.57;35.04;101191.14;103886;1308;60648;-82
2023/03/03 01:39:50;;;;;;;;;;;;;;;20.56;35.11;101190.59;103845;1308;60501;-83
2023/03/03 01:42:32;;;;;;;;;;;;;;;20.57;35.11;101190.75;103842;1313;74697;-82
2023/03/03 01:45:19;;;;;;;;;;;;;;;20.57;35.21;101185.75;103731;1308;60590;-82
2023/03/03 01:47:53;;;;;;;;;;;;;;;20.57;35.08;101183.06;103786;1308;61050;-82
2023/03/03 01:50:30;;;;;;;;;;;;;;;20.58;35.19;101183.02;103740;1309;72308;-82
2023/03/03 01:52:57;;;;;;;;;;;;;;;20.57;34.99;101178.39;103772;1308;74803;-83
2023/03/03 01:55:24;;;;;;;;;;;;;;;20.57;35.17;101175.68;103649;1308;60500;-81
2023/03/03 01:58:22;;;;;;;;;;;;;;;20.58;35.09;101171.91;103434;1308;60369;-82
2023/03/03 02:00:49;;;;;;;;;;;;;;;20.58;35.09;101169.77;103083;1317;73409;-83
2023/03/03 02:03:18;;;;;;;;;;;;;;;20.57;35.10;101167.46;103059;1318;73332;-83
2023/03/03 02:05:51;;;;;;;;;;;;;;;20.58;35.08;101167.79;102945;1316;60788;-83
2023/03/03 02:08:17;;;;;;;;;;;;;;;20.58;35.19;101165.28;102901;1314;61034;-82
2023/03/03 02:10:44;;;;;;;;;;;;;;;20.58;35.14;101168.14;102971;1315;72604;-82
2023/03/03 02:13:11;;;;;;;;;;;;;;;20.59;35.09;101168.84;102924;1317;60680;-83
2023/03/03 02:15:38;;;;;;;;;;;;;;;20.58;35.18;101164.00;102910;1315;60865;-83
2023/03/03 02:18:07;;;;;;;;;;;;;;;20.58;35.18;101165.77;102863;1317;60654;-82
2023/03/03 02:20:46;;;;;;;;;;;;;;;20.58;35.13;101166.00;102925;1317;72362;-82
2023/03/03 02:23:50;;;;;;;;;;;;;;;20.58;35.18;101161.34;102953;1320;73542;-83
2023/03/03 02:26:21;;;;;;;;;;;;;;;20.58;35.17;101158.46;102289;1323;60519;-83
2023/03/03 02:28:47;;;;;;;;;;;;;;;20.59;35.24;101158.64;102441;1323;60368;-83
2023/03/03 02:31:17;;;;;;;;;;;;;;;20.59;35.23;101159.34;102273;1326;60576;-82
2023/03/03 02:33:45;;;;;;;;;;;;;;;20.59;35.17;101153.28;102399;1323;73710;-83
2023/03/03 02:36:22;;;;;;;;;;;;;;;20.59;35.17;101150.60;102557;1317;61046;-83
2023/03/03 02:39:09;;;;;;;;;;;;;;;20.59;35.15;101145.75;102876;1317;61123;-82
2023/03/03 02:41:41;;;;;;;;;;;;;;;20.59;35.17;101143.07;102853;1317;71445;-82
2023/03/03 02:44:15;;;;;;;;;;;;;;;20.59;35.20;101143.42;102933;1321;74760;-82
2023/03/03 02:46:42;;;;;;;;;;;;;;;20.59;35.21;101137.70;102863;1317;61176;-83
2023/03/03 02:49:08;;;;;;;;;;;;;;;20.59;35.20;101136.10;102887;1317;61480;-83
2023/03/03 02:51:41;;;;;;;;;;;;;;;20.58;35.18;101133.42;102838;1317;60341;-83
2023/03/03 02:54:07;;;;;;;;;;;;;;;20.59;35.19;101130.55;102823;1318;74798;-82
2023/03/03 02:56:32;;;;;;;;;;;;;;;20.59;35.22;101130.02;103075;1308;60639;-82
2023/03/03 02:58:58;;;;;;;;;;;;;;;20.59;35.08;101127.66;103880;1308;60488;-82
2023/03/03 03:01:30;;;;;;;;;;;;;;;20.59;35.16;101127.50;103733;1308;60555;-82
2023/03/03 03:03:57;;;;;;;;;;;;;;;20.59;35.12;101125.53;103827;1308;74849;-83
2023/03/03 03:06:22;;;;;;;;;;;;;;;20.59;35.21;101124.64;103786;1309;60972;-82
2023/03/03 03:08:48;;;;;;;;;;;;;;;20.59;35.12;101127.15;103710;1308;60590;-82
2023/03/03 03:11:22;;;;;;;;;;;;;;;20.59;35.11;101126.60;103878;1313;60524;-83
2023/03/03 03:13:48;;;;;;;;;;;;;;;20.59;35.13;101128.75;103660;1308;73629;-83
2023/03/03 03:16:14;;;;;;;;;;;;;;;20.59;35.05;101125.91;103736;1309;60636;-82
2023/03/03 03:18:39;;;;;;;;;;;;;;;20.59;35.13;101121.09;103614;1308;60532;-82
2023/03/03 03:21:06;;;;;;;;;;;;;;;20.59;35.04;101122.33;103612;1308;60469;-82
2023/03/03 03:23:33;;;;;;;;;;;;;;;20.59;35.09;101118.02;103683;1308;60361;-82
2023/03/03 03:26:02;;;;;;;;;;;;;;;20.59;34.97;101117.30;103651;1308;60514;-83
2023/03/03 03:28:27;;;;;;;;;;;;;;;20.59;35.01;101116.42;103699;1309;60516;-83
2023/03/03 03:30:53;;;;;;;;;;;;;;;20.59;35.17;101111.61;103856;1313;60465;-83
2023/03/03 03:33:18;;;;;;;;;;;;;;;20.58;35.09;101115.17;103736;1308;60471;-83
2023/03/03 03:35:46;;;;;;;;;;;;;;;20.59;35.00;101114.29;103559;1308;60524;-83
2023/03/03 03:38:12;;;;;;;;;;;;;;;20.58;35.20;101111.80;103677;1308;60386;-83
2023/03/03 03:40:38;;;;;;;;;;;;;;;20.59;35.06;101107.84;103832;1308;60423;-83
2023/03/03 03:43:04;;;;;;;;;;;;;;;20.59;35.20;101106.06;103677;1308;60475;-83
2023/03/03 03:45:29;;;;;;;;;;;;;;;20.59;35.02;101108.02;103922;1309;60529;-83
2023/03/03 03:47:55;;;;;;;;;;;;;;;20.59;35.13;101108.38;103841;1308;61761;-83
2023/03/03 03:50:21;;;;;;;;;;;;;;;20.58;35.22;101106.27;103688;1309;60549;-83
2023/03/03 03:52:46;;;;;;;;;;;;;;;20.59;35.33;101108.05;103887;1308;60503;-84
2023/03/03 03:55:14;;;;;;;;;;;;;;;20.59;35.06;101106.77;103861;1308;60485;-83
2023/03/03 03:57:40;;;;;;;;;;;;;;;20.58;35.07;101104.83;103649;1308;60533;-82
2023/03/03 04:00:08;;;;;;;;;;;;;;;20.59;35.07;101102.66;103689;1308;60603;-83
2023/03/03 04:02:34;;;;;;;;;;;;;;;20.59;35.22;101102.48;103683;1308;60625;-82
2023/03/03 04:05:00;;;;;;;;;;;;;;;20.59;35.16;101104.41;103687;1314;60485;-83
2023/03/03 04:07:34;;;;;;;;;;;;;;;20.58;35.11;101101.06;103845;1308;60979;-82
2023/03/03 04:10:00;;;;;;;;;;;;;;;20.59;35.08;101099.08;103683;1308;60494;-82
2023/03/03 04:12:28;;;;;;;;;;;;;;;20.59;35.02;101094.61;103855;1309;60588;-82
2023/03/03 04:14:54;;;;;;;;;;;;;;;20.59;35.13;101094.59;103856;1308;73532;-84
2023/03/03 04:17:23;;;;;;;;;;;;;;;20.59;35.11;101093.52;103859;1308;60541;-84
2023/03/03 04:19:52;;;;;;;;;;;;;;;20.59;35.11;101092.42;103851;1308;61107;-83
2023/03/03 04:22:17;;;;;;;;;;;;;;;20.59;35.07;101094.77;103832;1308;60385;-83
2023/03/03 04:24:43;;;;;;;;;;;;;;;20.60;35.18;101094.55;103868;1308;60507;-84
2023/03/03 04:27:09;;;;;;;;;;;;;;;20.59;35.09;101090.84;103846;1308;60539;-84
2023/03/03 04:29:34;;;;;;;;;;;;;;;20.59;35.12;101093.01;103676;1308;60555;-84
2023/03/03 04:32:00;;;;;;;;;;;;;;;20.59;34.96;101095.48;103785;1308;60453;-83
2023/03/03 04:34:27;;;;;;;;;;;;;;;20.58;35.08;101099.81;103663;1310;73358;-81
2023/03/03 04:36:53;;;;;;;;;;;;;;;20.56;35.09;101099.59;103632;1309;74455;-82
2023/03/03 04:39:18;;;;;;;;;;;;;;;20.55;35.11;101097.38;103627;1308;61326;-83
2023/03/03 04:41:44;;;;;;;;;;;;;;;20.53;34.84;101092.84;103531;1308;61294;-83
2023/03/03 04:44:10;;;;;;;;;;;;;;;20.53;34.90;101091.78;103676;1308;61259;-83
2023/03/03 04:46:36;;;;;;;;;;;;;;;20.53;34.79;101091.80;103644;1309;61439;-83
2023/03/03 04:49:02;;;;;;;;;;;;;;;20.52;34.83;101090.77;103647;1308;61397;-83
2023/03/03 04:51:28;;;;;;;;;;;;;;;20.51;34.56;101089.40;103684;1308;61323;-83
2023/03/03 04:53:54;;;;;;;;;;;;;;;20.48;34.71;101085.10;103452;1308;61278;-83
2023/03/03 04:56:22;;;;;;;;;;;;;;;20.47;34.50;101086.64;103640;1309;61320;-83
2023/03/03 04:58:47;;;;;;;;;;;;;;;20.43;34.53;101088.09;103576;1314;61253;-83
2023/03/03 05:01:18;;;;;;;;;;;;;;;20.41;34.55;101091.83;103677;1308;61468;-82
2023/03/03 05:03:45;;;;;;;;;;;;;;;20.38;34.47;101089.67;103632;1308;61357;-83
2023/03/03 05:06:11;;;;;;;;;;;;;;;20.36;34.32;101096.46;103595;1312;73553;-82
2023/03/03 05:08:36;;;;;;;;;;;;;;;20.33;34.38;101097.36;103357;1309;62533;-83
2023/03/03 05:11:02;;;;;;;;;;;;;;;20.30;34.28;101095.55;103831;1309;61316;-83
2023/03/03 05:13:28;;;;;;;;;;;;;;;20.28;34.20;101097.66;103966;1308;61297;-83
2023/03/03 05:15:56;;;;;;;;;;;;;;;20.26;34.23;101102.03;103760;1308;61788;-84
2023/03/03 05:18:23;;;;;;;;;;;;;;;20.24;34.15;101100.03;103656;1309;61291;-83
2023/03/03 05:21:13;;;;;;;;;;;;;;;20.22;34.08;101100.20;103611;1308;61176;-84
2023/03/03 05:23:41;;;;;;;;;;;;;;;20.18;34.02;101098.95;103021;1317;61202;-84
2023/03/03 05:26:11;;;;;;;;;;;;;;;20.16;33.92;101095.35;102839;1314;72598;-83
2023/03/03 05:28:36;;;;;;;;;;;;;;;20.14;33.85;101099.57;102856;1315;74283;-83
2023/03/03 05:31:03;;;;;;;;;;;;;;;20.13;33.73;101098.57;102813;1314;61320;-84
2023/03/03 05:33:29;;;;;;;;;;;;;;;20.11;33.64;101102.27;102710;1314;61385;-83
2023/03/03 05:36:02;;;;;;;;;;;;;;;20.08;33.60;101102.84;102788;1315;61213;-82
2023/03/03 05:38:27;;;;;;;;;;;;;;;20.04;33.53;101103.39;103026;1314;75704;-83
2023/03/03 05:40:54;;;;;;;;;;;;;;;20.01;33.61;101105.56;102995;1314;61349;-84
2023/03/03 05:43:20;;;;;;;;;;;;;;;19.97;33.44;101104.41;102810;1314;61397;-83
2023/03/03 05:45:46;;;;;;;;;;;;;;;19.92;33.39;101109.69;102819;1315;61308;-82
2023/03/03 05:48:11;;;;;;;;;;;;;;;19.87;33.31;101108.56;102653;1314;62968;-82
2023/03/03 05:50:39;;;;;;;;;;;;;;;19.83;33.34;101107.55;102481;1315;63483;-82
2023/03/03 05:53:05;;;;;;;;;;;;;;;19.80;33.34;101103.81;102530;1314;61318;-82
2023/03/03 05:55:31;;;;;;;;;;;;;;;19.77;33.27;101110.42;102495;1316;61313;-81
2023/03/03 05:57:57;;;;;;;;;;;;;;;19.74;33.18;101115.60;102044;1314;63670;-82
2023/03/03 06:00:23;;;;;;;;;;;;;;;19.68;33.15;101117.55;102130;1309;61432;-81
2023/03/03 06:02:49;;;;;;;;;;;;;;;19.61;33.16;101115.13;102903;1308;61313;-82
2023/03/03 06:05:14;;;;;;;;;;;;;;;19.54;33.15;101114.42;102620;1309;61347;-82
2023/03/03 06:24:24;;;;;;;;;;;;;;;19.71;33.26;101109.84;87314;1303;73442;-82
2023/03/03 06:26:51;;;;;;;;;;;;;;;19.77;33.25;101108.05;103845;1308;60532;-81
2023/03/03 06:29:16;;;;;;;;;;;;;;;19.82;33.22;101111.55;103249;1308;61425;-82
2023/03/03 06:31:43;;;;;;;;;;;;;;;19.86;33.26;101108.61;103246;1309;61417;-82
2023/03/03 06:34:09;;;;;;;;;;;;;;;19.92;33.11;101109.49;104131;1308;59390;-81
2023/03/03 06:36:34;;;;;;;;;;;;;;;19.98;33.20;101112.38;103366;1308;61309;-81
2023/03/03 06:39:00;;;;;;;;;;;;;;;20.02;33.04;101115.49;103385;1308;61365;-81
2023/03/03 08:59:14;;;;;;;;;;;;;;;20.29;33.99;101051.10;86006;1313;162634;-84
2023/03/03 09:01:42;;;;;;;;;;;;;;;20.31;33.94;101051.02;103573;1308;59671;-84
2023/03/03 09:04:09;;;;;;;;;;;;;;;20.32;33.95;101054.13;103603;1311;60112;-86
2023/03/03 09:06:35;;;;;;;;;;;;;;;20.24;33.86;101053.23;103359;1314;73025;-87
2023/03/03 09:09:01;;;;;;;;;;;;;;;20.14;33.89;101052.39;103547;1310;75297;-84
2023/03/03 09:11:27;;;;;;;;;;;;;;;20.10;33.89;101050.50;103591;1310;61326;-84
2023/03/03 09:14:12;;;;;;;;;;;;;;;20.09;33.91;101050.95;103425;1311;61477;-85
2023/03/03 09:16:38;;;;;;;;;;;;;;;20.08;33.99;101045.42;103544;1312;73314;-84
2023/03/03 09:19:23;;;;;;;;;;;;;;;20.10;33.89;101044.58;103655;1309;61330;-84
2023/03/03 09:21:50;;;;;;;;;;;;;;;20.14;33.94;101036.54;103571;1309;60058;-84
2023/03/03 09:24:25;;;;;;;;;;;;;;;20.17;34.08;101032.94;103424;1311;61183;-84
2023/03/03 09:26:52;;;;;;;;;;;;;;;20.21;34.08;101029.42;103486;1309;73487;-84
2023/03/03 09:29:23;;;;;;;;;;;;;;;20.26;33.98;101031.47;104340;1310;75496;-85
2023/03/03 09:32:15;;;;;;;;;;;;;;;20.30;34.17;101027.65;104347;1311;60131;-85
2023/03/03 09:46:43;;;;;;;;;;;;;;;20.51;34.19;101017.90;97428;1305;1049602;-81
2023/03/03 09:49:14;;;;;;;;;;;;;;;20.53;34.13;101010.22;103346;1308;72764;-83
2023/03/03 09:51:56;;;;;;;;;;;;;;;20.56;34.02;101009.14;103216;1308;74559;-82
2023/03/03 09:54:30;;;;;;;;;;;;;;;20.59;33.99;101010.39;103339;1309;61308;-82
2023/03/03 09:56:56;;;;;;;;;;;;;;;20.61;34.08;101007.37;103389;1309;61316;-81
2023/03/03 09:59:22;;;;;;;;;;;;;;;20.63;34.05;101004.60;103468;1308;61316;-82
2023/03/03 10:01:47;;;;;;;;;;;;;;;20.64;34.22;100999.52;103239;1309;62239;-82
2023/03/03 10:04:33;;;;;;;;;;;;;;;20.61;34.11;100996.81;102907;1308;61342;-83
2023/03/03 10:07:17;;;;;;;;;;;;;;;20.52;34.12;100993.88;102291;1315;61836;-82
2023/03/03 10:09:50;;;;;;;;;;;;;;;20.46;34.02;100992.12;102397;1317;73427;-83
2023/03/03 10:12:24;;;;;;;;;;;;;;;20.37;33.92;100986.61;102306;1314;74618;-83
2023/03/03 10:15:08;;;;;;;;;;;;;;;20.31;33.93;100985.43;102368;1314;61304;-82
2023/03/03 10:17:37;;;;;;;;;;;;;;;20.25;33.96;100985.61;102280;1313;60399;-83
2023/03/03 10:20:09;;;;;;;;;;;;;;;20.21;34.01;100979.59;102293;1314;73579;-83
2023/03/03 10:22:53;;;;;;;;;;;;;;;20.18;33.94;100978.00;102238;1314;75617;-82
2023/03/03 10:25:21;;;;;;;;;;;;;;;20.14;33.88;100975.25;102334;1314;61478;-83
2023/03/03 10:28:10;;;;;;;;;;;;;;;20.12;33.84;100968.92;102422;1316;61938;-82
2023/03/03 10:31:10;;;;;;;;;;;;;;;20.09;33.90;100965.52;102350;1316;73469;-82
2023/03/03 10:33:36;;;;;;;;;;;;;;;20.05;33.74;100965.27;102451;1314;74506;-82
2023/03/03 10:36:06;;;;;;;;;;;;;;;20.01;33.70;100960.90;102493;1314;61368;-83
2023/03/03 10:38:37;;;;;;;;;;;;;;;19.99;33.65;100954.43;102421;1314;61239;-80
2023/03/03 10:41:18;;;;;;;;;;;;;;;20.00;33.70;100951.13;102371;1314;73085;-82
2023/03/03 10:43:51;;;;;;;;;;;;;;;20.03;33.73;100949.11;102606;1309;74482;-83
2023/03/03 10:46:26;;;;;;;;;;;;;;;20.07;33.73;100944.92;103214;1308;61256;-82
2023/03/03 10:49:18;;;;;;;;;;;;;;;20.10;33.74;100938.81;103058;1308;61422;-82
2023/03/03 10:51:52;;;;;;;;;;;;;;;20.15;33.78;100934.09;102812;1308;73586;-82
2023/03/03 10:54:21;;;;;;;;;;;;;;;20.17;33.74;100927.14;103229;1308;74353;-82
2023/03/03 10:56:49;;;;;;;;;;;;;;;20.19;33.86;100922.52;103208;1309;61334;-83
2023/03/03 10:59:36;;;;;;;;;;;;;;;20.21;33.85;100917.23;103172;1308;61430;-83
2023/03/03 11:02:06;;;;;;;;;;;;;;;20.17;33.73;100914.63;103105;1308;73433;-85
2023/03/03 11:04:41;;;;;;;;;;;;;;;20.07;33.67;100910.64;102891;1308;75415;-83
2023/03/03 11:07:12;;;;;;;;;;;;;;;19.99;33.74;100909.23;104373;1310;60967;-84
2023/03/03 11:09:48;;;;;;;;;;;;;;;19.91;33.62;100908.30;104379;1308;60573;-84
2023/03/03 11:12:22;;;;;;;;;;;;;;;19.89;33.75;100904.27;104438;1308;72713;-84
2023/03/03 11:14:54;;;;;;;;;;;;;;;19.89;33.88;100900.18;104416;1309;75807;-83
2023/03/03 11:17:22;;;;;;;;;;;;;;;19.86;33.64;100896.84;104385;1308;60700;-83
2023/03/03 11:19:52;;;;;;;;;;;;;;;19.78;33.73;100894.29;104462;1308;60055;-83
2023/03/03 11:22:26;;;;;;;;;;;;;;;19.76;33.68;100894.77;104605;1308;73528;-85
2023/03/03 11:25:04;;;;;;;;;;;;;;;19.75;33.67;100881.37;104553;1308;75622;-81
2023/03/03 11:27:33;;;;;;;;;;;;;;;19.76;33.85;100879.71;104434;1308;61103;-82
2023/03/03 11:30:23;;;;;;;;;;;;;;;19.76;33.85;100877.94;102989;1308;61351;-83
2023/03/03 11:36:16;;;;;;;;;;;;;;;19.77;33.86;100870.58;102563;1317;74515;-83
2023/03/03 11:38:57;;;;;;;;;;;;;;;19.79;33.88;100867.26;103167;1315;61310;-83
2023/03/03 11:41:37;;;;;;;;;;;;;;;19.79;33.89;100860.65;103002;1315;61274;-83
2023/03/03 11:44:04;;;;;;;;;;;;;;;19.77;33.71;100857.14;102936;1314;73751;-82
2023/03/03 11:46:50;;;;;;;;;;;;;;;19.78;33.67;100855.71;102814;1316;74757;-83
2023/03/03 11:49:34;;;;;;;;;;;;;;;19.78;33.62;100849.08;102401;1320;61392;-83
2023/03/03 11:52:18;;;;;;;;;;;;;;;19.75;33.61;100844.63;102638;1322;61420;-83
2023/03/03 11:54:59;;;;;;;;;;;;;;;19.72;33.53;100841.20;102496;1323;73482;-83
2023/03/03 11:57:28;;;;;;;;;;;;;;;19.73;33.67;100839.75;102345;1322;74683;-82
2023/03/03 12:00:33;;;;;;;;;;;;;;;19.75;33.68;100835.90;102073;1322;59879;-83
2023/03/03 12:03:14;;;;;;;;;;;;;;;19.76;33.61;100835.62;102020;1329;61661;-82
2023/03/03 12:05:50;;;;;;;;;;;;;;;19.73;33.52;100834.75;102140;1331;72637;-83
2023/03/03 12:08:27;;;;;;;;;;;;;;;19.72;33.51;100834.09;102088;1333;75003;-82
2023/03/03 12:10:55;;;;;;;;;;;;;;;19.71;33.56;100833.08;102055;1328;60937;-83
2023/03/03 12:13:40;;;;;;;;;;;;;;;19.72;33.51;100835.18;102317;1322;60320;-83
2023/03/03 12:16:11;;;;;;;;;;;;;;;19.70;33.48;100835.63;102517;1322;73809;-86
2023/03/03 12:18:46;;;;;;;;;;;;;;;19.70;33.50;100835.29;102466;1322;75630;-82
2023/03/03 12:21:14;;;;;;;;;;;;;;;19.70;33.45;100837.95;102495;1323;61236;-81
2023/03/03 12:23:58;;;;;;;;;;;;;;;19.71;33.49;100839.70;102577;1323;61296;-83
2023/03/03 12:26:25;;;;;;;;;;;;;;;19.72;33.47;100836.98;102697;1317;73560;-83
2023/03/03 12:28:52;;;;;;;;;;;;;;;19.73;33.46;100836.89;102893;1317;75674;-83
2023/03/03 12:31:21;;;;;;;;;;;;;;;19.73;33.37;100837.80;103352;1317;61522;-83
2023/03/03 12:34:13;;;;;;;;;;;;;;;19.73;33.66;100843.48;103941;1308;61104;-84
2023/03/03 12:36:45;;;;;;;;;;;;;;;19.74;33.51;100835.39;104437;1309;73813;-84
2023/03/03 12:39:23;;;;;;;;;;;;;;;19.74;33.53;100835.56;104497;1308;75063;-84
2023/03/03 12:42:03;;;;;;;;;;;;;;;19.74;33.45;100834.14;104588;1308;60208;-84
2023/03/03 12:45:07;;;;;;;;;;;;;;;19.74;33.42;100834.29;104566;1308;61524;-83
2023/03/03 12:47:37;;;;;;;;;;;;;;;19.76;33.59;100830.99;102995;1315;72850;-82
2023/03/03 12:50:23;;;;;;;;;;;;;;;19.77;33.58;100830.03;103000;1317;74593;-81
2023/03/03 12:53:07;;;;;;;;;;;;;;;19.78;33.50;100829.29;102769;1314;62268;-81
2023/03/03 12:55:36;;;;;;;;;;;;;;;19.79;33.63;100825.30;102814;1316;61336;-83
2023/03/03 12:58:14;;;;;;;;;;;;;;;19.81;33.66;100827.32;102794;1316;73539;-82
2023/03/03 13:00:39;;;;;;;;;;;;;;;19.77;33.62;100823.22;103316;1317;75798;-82
2023/03/03 13:03:22;;;;;;;;;;;;;;;19.75;33.56;100822.83;102990;1314;61476;-82
2023/03/03 13:05:54;;;;;;;;;;;;;;;19.72;33.54;100822.31;103027;1318;61378;-83
2023/03/03 13:08:30;;;;;;;;;;;;;;;19.70;33.50;100820.08;103789;1319;72622;-82
2023/03/03 13:10:58;;;;;;;;;;;;;;;19.70;33.56;100817.23;103793;1317;75513;-82
2023/03/03 13:13:30;;;;;;;;;;;;;;;19.71;33.57;100818.98;103838;1314;61432;-82
2023/03/03 13:16:27;;;;;;;;;;;;;;;19.72;33.46;100815.70;103901;1314;60974;-82
2023/03/03 13:18:55;;;;;;;;;;;;;;;19.73;33.48;100813.34;102674;1320;73682;-81
2023/03/03 13:21:27;;;;;;;;;;;;;;;19.73;33.50;100813.67;102934;1317;75057;-82
2023/03/03 13:23:55;;;;;;;;;;;;;;;19.73;33.53;100818.13;102926;1316;60036;-83
2023/03/03 13:26:39;;;;;;;;;;;;;;;19.73;33.49;100816.17;102956;1314;60486;-82
2023/03/03 13:29:14;;;;;;;;;;;;;;;19.73;33.48;100816.54;102913;1317;73506;-82
2023/03/03 13:31:45;;;;;;;;;;;;;;;19.72;33.48;100819.11;103654;1314;74449;-82
2023/03/03 13:34:19;;;;;;;;;;;;;;;19.71;33.49;100814.52;103709;1308;61303;-83
2023/03/03 13:36:51;;;;;;;;;;;;;;;19.69;33.39;100813.22;103554;1308;61725;-82
2023/03/03 13:39:19;;;;;;;;;;;;;;;19.68;33.44;100817.56;103548;1309;72320;-83
2023/03/03 13:41:48;;;;;;;;;;;;;;;19.67;33.43;100818.00;103584;1308;75013;-83
2023/03/03 13:44:16;;;;;;;;;;;;;;;19.66;33.36;100818.77;103820;1311;61199;-83
2023/03/03 13:46:44;;;;;;;;;;;;;;;19.65;33.20;100810.80;103574;1309;61258;-83
2023/03/03 13:49:31;;;;;;;;;;;;;;;19.64;33.28;100812.12;103569;1308;73507;-84
2023/03/03 13:52:04;;;;;;;;;;;;;;;19.63;33.31;100810.92;103785;1308;74591;-83
2023/03/03 13:54:31;;;;;;;;;;;;;;;19.62;33.14;100809.42;103784;1311;61138;-83
2023/03/03 13:57:03;;;;;;;;;;;;;;;19.61;33.25;100809.47;103830;1313;61883;-82
2023/03/03 13:59:47;;;;;;;;;;;;;;;19.61;33.17;100808.52;103757;1308;72736;-83
2023/03/03 14:02:24;;;;;;;;;;;;;;;19.63;33.02;100802.05;103799;1308;74769;-84
2023/03/03 14:04:54;;;;;;;;;;;;;;;19.64;32.98;100802.66;103833;1308;61635;-83
2023/03/03 14:07:21;;;;;;;;;;;;;;;19.65;33.00;100802.58;103680;1308;61156;-83
2023/03/03 14:09:56;;;;;;;;;;;;;;;19.67;33.09;100796.95;103613;1311;72397;-83
2023/03/03 14:12:42;;;;;;;;;;;;;;;19.68;33.06;100800.42;103761;1308;75345;-83
2023/03/03 14:15:21;;;;;;;;;;;;;;;19.71;33.01;100800.27;103791;1308;61157;-84
2023/03/03 14:17:49;;;;;;;;;;;;;;;19.73;32.99;100798.83;103578;1311;61214;-83
2023/03/03 14:20:20;;;;;;;;;;;;;;;19.76;32.96;100794.77;103825;1308;72445;-82
2023/03/03 14:23:13;;;;;;;;;;;;;;;19.77;32.95;100795.00;103831;1309;75512;-83
2023/03/03 14:25:58;;;;;;;;;;;;;;;19.81;33.11;100796.60;103827;1308;61324;-82
2023/03/03 14:28:25;;;;;;;;;;;;;;;19.83;33.16;100794.29;103839;1308;61199;-83
2023/03/03 14:30:55;;;;;;;;;;;;;;;19.86;33.17;100793.36;103611;1309;73433;-82
2023/03/03 14:33:22;;;;;;;;;;;;;;;19.90;33.13;100792.77;103722;1309;75558;-82
2023/03/03 14:35:55;;;;;;;;;;;;;;;19.92;33.24;100794.40;103708;1308;61239;-83
2023/03/03 14:38:22;;;;;;;;;;;;;;;19.95;33.30;100794.97;103786;1308;61495;-82
2023/03/03 14:40:49;;;;;;;;;;;;;;;19.98;33.11;100797.42;103687;1309;73432;-82
2023/03/03 14:43:20;;;;;;;;;;;;;;;20.00;33.25;100791.45;103663;1314;75492;-83
2023/03/03 14:45:46;;;;;;;;;;;;;;;20.02;33.27;100792.35;103693;1309;61103;-82
2023/03/03 14:48:19;;;;;;;;;;;;;;;20.04;33.37;100790.41;103608;1310;61384;-82
2023/03/03 14:51:16;;;;;;;;;;;;;;;20.07;33.51;100790.24;103835;1308;73499;-83
2023/03/03 14:53:42;;;;;;;;;;;;;;;20.09;33.43;100790.45;103552;1311;75478;-82
2023/03/03 14:56:23;;;;;;;;;;;;;;;20.10;33.66;100792.86;103377;1312;61361;-82
2023/03/03 14:59:08;;;;;;;;;;;;;;;20.13;33.76;100792.88;103346;1312;61343;-82
2023/03/03 15:01:34;;;;;;;;;;;;;;;20.15;33.80;100791.48;103580;1312;73734;-82
2023/03/03 15:04:00;;;;;;;;;;;;;;;20.17;33.83;100795.26;103354;1314;61310;-82
2023/03/03 15:06:52;;;;;;;;;;;;;;;20.19;33.94;100793.19;103515;1311;61298;-83
2023/03/03 15:09:26;;;;;;;;;;;;;;;20.21;34.06;100790.01;102700;1320;61148;-83
2023/03/03 15:11:55;;;;;;;;;;;;;;;20.23;34.21;100793.23;102693;1318;71381;-82
2023/03/03 15:14:31;;;;;;;;;;;;;;;20.25;34.28;100791.52;102701;1320;74497;-81
2023/03/03 15:16:58;;;;;;;;;;;;;;;20.25;34.46;100790.58;102806;1317;61205;-82
2023/03/03 15:19:30;;;;;;;;;;;;;;;20.26;34.57;100788.20;102808;1317;61346;-82
2023/03/03 15:21:55;;;;;;;;;;;;;;;20.27;34.62;100790.33;102799;1316;73591;-82
2023/03/03 15:24:34;;;;;;;;;;;;;;;20.28;34.77;100787.92;102835;1320;61413;-83
2023/03/03 15:27:07;;;;;;;;;;;;;;;20.28;34.94;100786.48;102842;1317;61340;-81
2023/03/03 15:29:37;;;;;;;;;;;;;;;20.28;35.03;100790.45;102813;1316;61277;-82
2023/03/03 15:32:20;;;;;;;;;;;;;;;20.29;35.24;100790.73;102872;1316;72384;-82
2023/03/03 15:34:48;;;;;;;;;;;;;;;20.29;35.33;100790.55;102885;1317;75510;-82
2023/03/03 15:37:34;;;;;;;;;;;;;;;20.29;35.43;100792.48;102932;1316;61328;-83
2023/03/03 15:40:07;;;;;;;;;;;;;;;20.29;35.50;100792.02;102968;1317;61347;-82